Time;durP1;ratioP1;P1;durP2;ratioP2;P2;SDS_P1;SDS_P2;PMS_P1;PMS_P2;Temp;Humidity;BMP_temperature;BMP_pressure;BME280_temperature;BME280_humidity;BME280_pressure;Samples;Min_cycle;Max_cycle;Signal;HPM_P1;HPM_P2
2021/09/11 00:00:28;;;;;;;51.90;35.40;;;18.70;99.90;;;;;;5072918;28;20041;-72
2021/09/11 00:02:53;;;;;;;54.15;35.80;;;18.70;99.90;;;;;;5074004;28;20041;-72
2021/09/11 00:05:19;;;;;;;51.83;35.75;;;18.70;99.90;;;;;;5073887;28;20094;-72
2021/09/11 00:07:45;;;;;;;59.55;37.90;;;18.60;99.90;;;;;;5073374;28;20036;-72
2021/09/11 00:10:12;;;;;;;59.42;35.83;;;18.60;99.90;;;;;;5071966;28;20550;-72
2021/09/11 00:12:38;;;;;;;51.03;33.60;;;18.60;99.90;;;;;;5073275;28;20500;-72
2021/09/11 00:15:05;;;;;;;55.28;35.72;;;18.60;99.90;;;;;;5073672;28;20032;-72
2021/09/11 00:17:31;;;;;;;55.25;35.42;;;18.60;99.90;;;;;;5055262;28;20040;-72
2021/09/11 00:19:56;;;;;;;54.88;35.85;;;18.70;99.90;;;;;;5072584;28;20044;-72
2021/09/11 00:22:22;;;;;;;70.70;39.28;;;18.60;99.90;;;;;;5072053;28;20052;-72
2021/09/11 00:24:47;;;;;;;59.05;39.08;;;18.70;99.90;;;;;;5073180;28;20090;-72
2021/09/11 00:27:13;;;;;;;69.35;41.17;;;18.60;99.90;;;;;;5072474;28;20119;-72
2021/09/11 00:29:39;;;;;;;63.92;39.05;;;18.60;99.90;;;;;;5072708;28;20441;-72
2021/09/11 00:32:05;;;;;;;59.20;37.75;;;18.70;99.90;;;;;;5073477;28;20033;-72
2021/09/11 00:34:31;;;;;;;93.45;46.97;;;18.70;99.90;;;;;;5072012;28;20032;-72
2021/09/11 00:36:57;;;;;;;74.53;41.55;;;18.70;99.90;;;;;;5073010;28;20384;-72
2021/09/11 00:39:23;;;;;;;76.97;42.35;;;18.70;99.90;;;;;;5072568;28;20107;-73
2021/09/11 00:41:53;;;;;;;60.15;37.03;;;18.60;99.90;;;;;;5073384;28;20036;-73
2021/09/11 00:44:19;;;;;;;52.65;33.33;;;18.60;99.90;;;;;;5072973;28;20047;-73
2021/09/11 00:46:45;;;;;;;55.83;31.55;;;18.60;99.90;;;;;;5072824;28;20115;-73
2021/09/11 00:49:11;;;;;;;56.20;32.00;;;18.70;99.90;;;;;;5072636;28;20028;-73
2021/09/11 00:51:37;;;;;;;47.35;28.40;;;18.70;99.90;;;;;;5072625;28;20040;-73
2021/09/11 00:54:03;;;;;;;39.50;23.70;;;18.70;99.90;;;;;;5071537;28;20094;-73
2021/09/11 00:56:30;;;;;;;46.92;27.85;;;18.70;99.90;;;;;;5072991;28;20025;-73
2021/09/11 00:58:56;;;;;;;33.50;22.52;;;18.70;99.90;;;;;;5072545;28;20036;-73
2021/09/11 01:01:22;;;;;;;44.53;25.02;;;18.70;99.90;;;;;;5055047;28;20048;-73
2021/09/11 01:03:48;;;;;;;46.40;27.35;;;18.60;99.90;;;;;;5072647;28;20119;-73
2021/09/11 01:06:13;;;;;;;34.45;22.75;;;18.70;99.90;;;;;;5072950;28;20434;-73
2021/09/11 01:08:40;;;;;;;34.25;22.17;;;18.70;99.90;;;;;;5071496;28;20036;-73
2021/09/11 01:11:06;;;;;;;31.83;22.15;;;18.70;99.90;;;;;;5072594;28;20075;-73
2021/09/11 01:13:35;;;;;;;29.15;20.38;;;18.70;99.90;;;;;;5074950;28;20036;-73
2021/09/11 01:16:00;;;;;;;24.80;17.88;;;18.60;99.90;;;;;;5076306;28;20040;-73
2021/09/11 01:18:27;;;;;;;27.75;19.02;;;18.60;99.90;;;;;;5076408;28;20040;-73
2021/09/11 01:20:53;;;;;;;23.00;17.33;;;18.60;99.90;;;;;;5076234;28;20489;-73
2021/09/11 01:23:19;;;;;;;29.13;18.75;;;18.50;99.90;;;;;;5075101;28;20037;-73
2021/09/11 01:25:46;;;;;;;29.58;19.33;;;18.50;99.90;;;;;;5076448;28;20140;-73
2021/09/11 01:28:12;;;;;;;22.73;14.70;;;18.40;99.90;;;;;;5076318;28;20037;-73
2021/09/11 01:30:38;;;;;;;20.58;14.80;;;18.40;99.90;;;;;;5075848;28;20041;-73
2021/09/11 01:33:03;;;;;;;18.65;12.75;;;18.30;99.90;;;;;;5075894;28;20400;-73
2021/09/11 01:35:29;;;;;;;18.98;13.73;;;18.30;99.90;;;;;;5075980;28;20037;-73
2021/09/11 01:37:55;;;;;;;19.95;14.15;;;18.20;99.90;;;;;;5076318;28;20040;-73
2021/09/11 01:40:21;;;;;;;18.92;14.00;;;18.20;99.90;;;;;;5058155;28;20043;-73
2021/09/11 01:42:46;;;;;;;18.42;14.43;;;18.20;99.90;;;;;;5076560;28;20055;-73
2021/09/11 01:45:18;;;;;;;27.52;17.65;;;18.10;99.90;;;;;;5075959;28;20040;-73
2021/09/11 01:47:45;;;;;;;19.27;14.20;;;18.10;99.90;;;;;;5076230;28;20036;-73
2021/09/11 01:50:13;;;;;;;22.08;15.73;;;18.10;99.90;;;;;;5075704;28;20032;-73
2021/09/11 01:52:39;;;;;;;20.05;14.95;;;18.00;99.90;;;;;;5075543;28;20515;-73
2021/09/11 01:55:07;;;;;;;17.90;14.10;;;18.00;99.90;;;;;;5075543;28;20554;-73
2021/09/11 01:57:41;;;;;;;21.42;15.25;;;18.00;99.90;;;;;;5074323;28;20085;-73
2021/09/11 02:00:11;;;;;;;20.63;14.68;;;18.00;99.90;;;;;;5073976;28;20370;-73
2021/09/11 02:02:38;;;;;;;20.98;16.08;;;18.00;99.90;;;;;;5074768;28;20052;-73
2021/09/11 02:05:08;;;;;;;19.58;15.77;;;18.00;99.90;;;;;;5075582;28;20047;-73
2021/09/11 02:07:34;;;;;;;23.83;16.33;;;18.00;99.90;;;;;;5075494;28;20040;-73
2021/09/11 02:10:01;;;;;;;21.83;15.88;;;18.10;99.90;;;;;;5075125;28;20037;-73
2021/09/11 02:12:26;;;;;;;23.27;15.55;;;18.00;99.90;;;;;;5074072;28;20448;-73
2021/09/11 02:14:52;;;;;;;26.42;16.85;;;18.00;99.90;;;;;;5075185;28;20041;-73
2021/09/11 02:17:18;;;;;;;24.10;17.08;;;18.00;99.90;;;;;;5075253;28;20040;-73
2021/09/11 02:19:43;;;;;;;29.85;19.90;;;18.00;99.90;;;;;;5074770;28;20044;-73
2021/09/11 02:22:10;;;;;;;27.50;18.98;;;17.90;99.90;;;;;;5075089;28;20036;-73
2021/09/11 02:24:37;;;;;;;26.23;18.27;;;17.90;99.90;;;;;;5074698;28;20123;-73
2021/09/11 02:27:04;;;;;;;26.52;19.02;;;17.90;99.90;;;;;;5075058;28;20132;-73
2021/09/11 02:29:30;;;;;;;30.30;19.83;;;17.90;99.90;;;;;;5056837;28;20033;-73
2021/09/11 02:31:55;;;;;;;28.80;18.95;;;17.90;99.90;;;;;;5073859;28;20075;-73
2021/09/11 02:34:21;;;;;;;33.80;21.10;;;17.80;99.90;;;;;;5075162;28;20072;-73
2021/09/11 02:36:47;;;;;;;28.00;19.38;;;17.80;99.90;;;;;;5074934;28;20123;-73
2021/09/11 02:39:12;;;;;;;35.67;22.65;;;17.80;99.90;;;;;;5073196;28;20433;-73
2021/09/11 02:41:38;;;;;;;34.00;23.48;;;17.80;99.90;;;;;;5074641;28;20037;-73
2021/09/11 02:44:04;;;;;;;35.45;23.33;;;17.80;99.90;;;;;;5073480;28;20140;-73
2021/09/11 02:46:31;;;;;;;36.35;23.75;;;17.80;99.90;;;;;;5073686;28;20546;-73
2021/09/11 02:49:00;;;;;;;41.13;24.90;;;17.80;99.90;;;;;;5074524;28;20036;-73
2021/09/11 02:51:26;;;;;;;40.95;25.92;;;17.80;99.90;;;;;;5074839;28;20044;-73
2021/09/11 02:53:52;;;;;;;39.38;24.60;;;17.90;99.90;;;;;;5074622;28;20036;-73
2021/09/11 02:56:17;;;;;;;41.75;27.58;;;17.90;99.90;;;;;;5073461;28;20041;-73
2021/09/11 02:58:43;;;;;;;50.90;30.55;;;17.90;99.90;;;;;;5074164;28;20032;-73
2021/09/11 03:01:09;;;;;;;60.00;31.65;;;17.90;99.90;;;;;;5074371;28;20524;-73
2021/09/11 03:03:34;;;;;;;55.85;31.77;;;17.90;99.90;;;;;;5074766;28;20048;-73
2021/09/11 03:06:00;;;;;;;48.67;28.50;;;17.90;99.90;;;;;;5074455;28;20036;-73
2021/09/11 03:08:25;;;;;;;58.00;33.15;;;17.90;99.90;;;;;;5073178;28;20041;-73
2021/09/11 03:10:51;;;;;;;58.40;32.10;;;17.90;99.90;;;;;;5073922;28;20036;-73
2021/09/11 03:13:18;;;;;;;66.75;37.00;;;17.90;99.90;;;;;;5074484;28;20044;-73
2021/09/11 03:15:44;;;;;;;59.45;33.22;;;17.90;99.90;;;;;;5074217;28;20037;-72
2021/09/11 03:18:10;;;;;;;61.55;35.55;;;18.00;99.90;;;;;;5073092;28;20120;-73
2021/09/11 03:20:36;;;;;;;59.70;35.50;;;18.00;99.90;;;;;;5072319;28;20515;-73
2021/09/11 03:23:03;;;;;;;63.17;35.53;;;18.00;99.90;;;;;;5074010;28;20037;-73
2021/09/11 03:25:28;;;;;;;64.07;36.42;;;18.00;99.90;;;;;;5073928;28;20040;-72
2021/09/11 03:27:54;;;;;;;54.13;32.10;;;18.00;99.90;;;;;;5074252;28;20032;-73
2021/09/11 03:30:19;;;;;;;58.85;35.47;;;18.00;99.90;;;;;;5073449;28;20477;-73
2021/09/11 03:32:45;;;;;;;60.70;35.80;;;18.10;99.90;;;;;;5072578;28;20044;-73
2021/09/11 03:35:11;;;;;;;61.95;35.75;;;18.00;99.90;;;;;;5072297;28;20059;-73
2021/09/11 03:37:36;;;;;;;60.08;36.05;;;18.00;99.90;;;;;;5073712;28;20067;-73
2021/09/11 03:40:03;;;;;;;62.08;37.00;;;18.00;99.90;;;;;;5072332;28;20040;-73
2021/09/11 03:42:29;;;;;;;63.42;35.25;;;18.00;99.90;;;;;;5073627;28;20448;-72
2021/09/11 03:44:54;;;;;;;69.95;37.72;;;18.00;99.90;;;;;;5073846;28;20068;-72
2021/09/11 03:47:20;;;;;;;63.65;34.90;;;18.00;99.90;;;;;;5073923;28;20037;-72
2021/09/11 03:49:45;;;;;;;66.18;36.33;;;18.00;99.90;;;;;;5071957;28;20045;-72
2021/09/11 03:52:11;;;;;;;65.75;36.70;;;18.00;99.90;;;;;;5072279;28;20048;-73
2021/09/11 03:54:37;;;;;;;68.72;37.17;;;17.90;99.90;;;;;;5073593;28;20032;-73
2021/09/11 03:57:02;;;;;;;72.90;40.20;;;17.90;99.90;;;;;;5073609;28;20508;-73
2021/09/11 03:59:28;;;;;;;73.53;38.15;;;18.00;99.90;;;;;;5073131;28;20052;-72
2021/09/11 04:01:54;;;;;;;75.38;40.42;;;18.00;99.90;;;;;;5073448;28;20040;-73
2021/09/11 04:04:19;;;;;;;77.47;38.58;;;17.90;99.90;;;;;;5073288;28;20128;-73
2021/09/11 04:06:45;;;;;;;63.38;36.50;;;17.90;99.90;;;;;;5072056;28;20093;-73
2021/09/11 04:09:10;;;;;;;59.90;36.15;;;17.90;99.90;;;;;;5072913;28;20064;-73
2021/09/11 04:11:36;;;;;;;69.30;37.53;;;17.90;99.90;;;;;;5072030;28;20485;-73
2021/09/11 04:14:01;;;;;;;64.78;35.00;;;17.90;99.90;;;;;;5073620;28;20117;-73
2021/09/11 04:16:27;;;;;;;58.78;34.30;;;17.90;99.90;;;;;;5071888;28;20550;-72
2021/09/11 04:18:52;;;;;;;67.45;37.08;;;17.90;99.90;;;;;;5071827;28;20045;-73
2021/09/11 04:21:18;;;;;;;68.57;35.75;;;17.90;99.90;;;;;;5073411;28;20515;-72
2021/09/11 04:23:44;;;;;;;61.55;34.63;;;17.80;99.90;;;;;;5073026;28;20141;-73
2021/09/11 04:26:09;;;;;;;64.82;34.17;;;17.80;99.90;;;;;;5073338;28;20368;-73
2021/09/11 04:28:35;;;;;;;71.35;35.13;;;17.80;99.90;;;;;;5072796;28;20132;-73
2021/09/11 04:31:00;;;;;;;51.55;30.45;;;17.70;99.90;;;;;;5072931;28;20396;-72
2021/09/11 04:33:26;;;;;;;60.75;34.92;;;17.70;99.90;;;;;;5073253;28;20499;-73
2021/09/11 04:35:52;;;;;;;63.95;34.35;;;17.70;99.90;;;;;;5072963;28;20040;-73
2021/09/11 04:38:17;;;;;;;63.80;34.85;;;17.70;99.90;;;;;;5072789;28;20514;-73
2021/09/11 04:40:43;;;;;;;72.40;35.08;;;17.60;99.90;;;;;;5072864;28;20040;-73
2021/09/11 04:43:08;;;;;;;66.90;33.58;;;17.60;99.90;;;;;;5073123;28;20369;-73
2021/09/11 04:45:34;;;;;;;56.83;31.55;;;17.60;99.90;;;;;;5072888;28;20033;-73
2021/09/11 04:48:00;;;;;;;57.60;30.27;;;17.60;99.90;;;;;;5075868;28;20051;-73
2021/09/11 04:50:26;;;;;;;55.50;28.52;;;17.70;99.90;;;;;;5076731;28;20162;-73
2021/09/11 04:52:52;;;;;;;59.55;30.77;;;17.60;99.90;;;;;;5076592;28;20052;-73
2021/09/11 04:55:17;;;;;;;54.60;28.45;;;17.60;99.90;;;;;;5076898;28;20123;-73
2021/09/11 04:57:43;;;;;;;56.22;28.35;;;17.60;99.90;;;;;;5075541;28;20124;-73
2021/09/11 05:00:09;;;;;;;51.90;27.33;;;17.50;99.90;;;;;;5076400;28;20119;-73
2021/09/11 05:02:35;;;;;;;46.05;24.65;;;17.60;99.90;;;;;;5075528;28;20489;-73
2021/09/11 05:05:01;;;;;;;45.97;24.25;;;17.50;99.90;;;;;;5076843;28;20128;-73
2021/09/11 05:07:26;;;;;;;38.53;22.55;;;17.50;99.90;;;;;;5076699;28;20039;-73
2021/09/11 05:09:53;;;;;;;41.10;23.73;;;17.50;99.90;;;;;;5076576;28;20473;-73
2021/09/11 05:12:18;;;;;;;38.60;21.52;;;17.50;99.90;;;;;;5076579;28;20072;-73
2021/09/11 05:14:44;;;;;;;39.92;20.95;;;17.40;99.90;;;;;;5075233;28;20508;-73
2021/09/11 05:17:10;;;;;;;41.70;21.80;;;17.40;99.90;;;;;;5076516;28;20079;-73
2021/09/11 05:19:35;;;;;;;40.45;22.42;;;17.40;99.90;;;;;;5076061;28;20075;-73
2021/09/11 05:22:01;;;;;;;38.25;21.05;;;17.30;99.90;;;;;;5058633;28;20143;-73
2021/09/11 05:24:35;;;;;;;45.25;21.20;;;17.30;99.90;;;;;;5076312;28;20574;-73
2021/09/11 05:27:01;;;;;;;38.58;21.27;;;17.30;99.90;;;;;;5075117;28;20041;-73
2021/09/11 05:29:27;;;;;;;40.22;21.35;;;17.30;99.90;;;;;;5058062;28;20403;-74
2021/09/11 05:31:52;;;;;;;43.58;21.63;;;17.30;99.90;;;;;;5074714;28;20071;-74
2021/09/11 05:34:18;;;;;;;33.00;19.70;;;17.20;99.90;;;;;;5076007;28;20040;-74
2021/09/11 05:36:44;;;;;;;35.30;20.95;;;17.30;99.90;;;;;;5076180;28;20059;-74
2021/09/11 05:39:09;;;;;;;30.23;16.98;;;17.20;99.90;;;;;;5075842;28;20484;-74
2021/09/11 05:41:35;;;;;;;40.10;19.98;;;17.20;99.90;;;;;;5075901;28;20094;-73
2021/09/11 05:44:01;;;;;;;38.53;20.63;;;17.20;99.90;;;;;;5076055;28;20063;-73
2021/09/11 05:46:27;;;;;;;32.15;18.80;;;17.20;99.90;;;;;;5075877;28;20036;-73
2021/09/11 05:48:53;;;;;;;45.25;21.52;;;17.20;99.90;;;;;;5075933;28;20047;-73
2021/09/11 05:51:19;;;;;;;42.17;22.17;;;17.20;99.90;;;;;;5076393;28;20398;-73
2021/09/11 05:53:45;;;;;;;41.42;21.85;;;17.20;99.90;;;;;;5074706;28;20147;-73
2021/09/11 05:56:11;;;;;;;37.97;21.05;;;17.20;99.90;;;;;;5076047;28;20033;-73
2021/09/11 05:58:37;;;;;;;44.05;24.73;;;17.20;99.90;;;;;;5074769;28;20361;-74
2021/09/11 06:01:02;;;;;;;47.60;25.52;;;17.20;99.90;;;;;;5075935;28;20079;-73
2021/09/11 06:03:28;;;;;;;47.65;26.17;;;17.20;99.90;;;;;;5076019;28;20047;-73
2021/09/11 06:05:55;;;;;;;44.08;24.38;;;17.20;99.90;;;;;;5075828;28;20043;-73
2021/09/11 06:08:20;;;;;;;47.88;26.67;;;17.20;99.90;;;;;;5076067;28;20170;-74
2021/09/11 06:10:46;;;;;;;46.22;27.33;;;17.20;99.90;;;;;;5075215;28;20064;-74
2021/09/11 06:13:11;;;;;;;46.00;26.88;;;17.20;99.90;;;;;;5075264;28;20040;-73
2021/09/11 06:15:42;;;;;;;45.85;26.70;;;17.20;99.90;;;;;;5074347;28;20055;-73
2021/09/11 06:18:08;;;;;;;49.25;27.35;;;17.10;99.90;;;;;;5075844;28;20037;-73
2021/09/11 06:20:34;;;;;;;49.70;27.90;;;17.20;99.90;;;;;;5073715;28;20098;-74
2021/09/11 06:22:59;;;;;;;65.05;31.38;;;17.20;99.90;;;;;;5075319;28;20036;-71
2021/09/11 06:25:25;;;;;;;45.97;28.08;;;17.20;99.90;;;;;;5075385;28;20416;-71
2021/09/11 06:27:54;;;;;;;51.03;29.52;;;17.20;99.90;;;;;;5073859;28;20459;-72
2021/09/11 06:30:21;;;;;;;59.80;30.02;;;17.20;99.90;;;;;;5056916;28;20128;-72
2021/09/11 06:32:46;;;;;;;57.70;29.88;;;17.20;99.90;;;;;;5074700;28;20485;-72
2021/09/11 06:35:12;;;;;;;58.63;31.27;;;17.20;99.90;;;;;;5073721;28;20041;-72
2021/09/11 06:37:38;;;;;;;61.60;32.13;;;17.20;99.90;;;;;;5075402;28;20040;-70
2021/09/11 06:40:04;;;;;;;54.65;30.85;;;17.20;99.90;;;;;;5073484;28;20090;-71
2021/09/11 06:42:30;;;;;;;56.53;30.25;;;17.20;99.90;;;;;;5074693;28;20047;-72
2021/09/11 06:44:55;;;;;;;56.95;32.08;;;17.20;99.90;;;;;;5074735;28;20024;-73
2021/09/11 06:47:21;;;;;;;61.55;34.15;;;17.20;99.90;;;;;;5073403;28;20125;-72
2021/09/11 06:49:46;;;;;;;64.30;32.78;;;17.30;99.90;;;;;;5074772;28;20047;-73
2021/09/11 06:52:12;;;;;;;60.47;33.67;;;17.30;99.90;;;;;;5073570;28;20040;-72
2021/09/11 06:54:38;;;;;;;67.10;35.72;;;17.30;99.90;;;;;;5074549;28;20484;-72
2021/09/11 06:57:04;;;;;;;55.97;32.05;;;17.30;99.90;;;;;;5073670;28;20040;-72
2021/09/11 06:59:30;;;;;;;64.47;33.10;;;17.30;99.90;;;;;;5074538;28;20033;-72
2021/09/11 07:01:56;;;;;;;61.83;35.25;;;17.30;99.90;;;;;;5074332;28;20412;-72
2021/09/11 07:04:21;;;;;;;60.92;33.30;;;17.30;99.90;;;;;;5073172;28;20045;-71
2021/09/11 07:06:47;;;;;;;52.03;30.95;;;17.30;99.90;;;;;;5074732;28;20040;-71
2021/09/11 07:09:12;;;;;;;62.90;33.65;;;17.30;99.90;;;;;;5074171;28;20119;-72
2021/09/11 07:11:38;;;;;;;64.22;34.50;;;17.40;99.90;;;;;;5055511;28;20071;-71
2021/09/11 07:14:04;;;;;;;57.13;32.42;;;17.40;99.90;;;;;;5056432;28;20484;-71
2021/09/11 07:16:29;;;;;;;60.45;32.88;;;17.40;99.90;;;;;;5072811;28;20040;-72
2021/09/11 07:18:55;;;;;;;60.60;34.53;;;17.40;99.90;;;;;;5073856;28;20033;-72
2021/09/11 07:21:20;;;;;;;58.92;34.92;;;17.40;99.90;;;;;;5073878;28;20536;-72
2021/09/11 07:23:46;;;;;;;59.05;34.90;;;17.40;99.90;;;;;;5072826;28;20404;-72
2021/09/11 07:26:18;;;;;;;61.00;35.05;;;17.40;99.90;;;;;;5073877;28;20032;-71
2021/09/11 07:28:44;;;;;;;60.60;34.95;;;17.50;99.90;;;;;;5072350;28;20044;-70
2021/09/11 07:31:10;;;;;;;63.55;35.22;;;17.60;99.90;;;;;;5073741;28;20060;-70
2021/09/11 07:33:35;;;;;;;68.15;35.63;;;17.60;99.90;;;;;;5072502;28;20477;-71
2021/09/11 07:36:01;;;;;;;62.10;36.08;;;17.60;99.90;;;;;;5073911;28;20111;-71
2021/09/11 07:38:26;;;;;;;63.95;35.00;;;17.70;99.90;;;;;;5073576;28;20047;-70
2021/09/11 07:40:52;;;;;;;51.35;32.28;;;17.70;99.90;;;;;;5073296;28;20106;-71
2021/09/11 07:43:18;;;;;;;50.63;31.45;;;17.80;99.90;;;;;;5073883;28;20048;-75
2021/09/11 07:45:43;;;;;;;57.72;36.42;;;17.80;99.90;;;;;;5073959;28;20543;-75
2021/09/11 07:48:09;;;;;;;59.65;34.15;;;17.80;99.90;;;;;;5073535;28;20058;-75
2021/09/11 07:50:36;;;;;;;55.88;34.67;;;17.80;99.90;;;;;;5072239;28;20610;-76
2021/09/11 07:53:05;;;;;;;67.18;36.75;;;17.70;99.90;;;;;;5073610;28;20461;-76
2021/09/11 07:55:31;;;;;;;61.85;35.20;;;17.70;99.90;;;;;;5055740;28;20116;-76
2021/09/11 07:57:57;;;;;;;63.05;37.35;;;17.70;99.90;;;;;;5073466;28;20043;-76
2021/09/11 08:00:24;;;;;;;63.28;36.75;;;17.70;99.90;;;;;;5073132;28;20037;-75
2021/09/11 08:02:50;;;;;;;67.45;36.17;;;17.80;99.90;;;;;;5073757;28;20439;-76
2021/09/11 08:05:15;;;;;;;61.33;33.85;;;17.80;99.90;;;;;;5073505;28;20036;-76
2021/09/11 08:07:41;;;;;;;60.53;34.47;;;17.80;99.90;;;;;;5073278;28;20121;-76
2021/09/11 08:10:07;;;;;;;59.28;34.63;;;17.80;99.90;;;;;;5072988;28;20047;-76
2021/09/11 08:12:33;;;;;;;59.65;35.42;;;17.80;99.90;;;;;;5072337;28;20123;-76
2021/09/11 08:14:59;;;;;;;61.72;35.28;;;17.80;99.90;;;;;;5073185;28;20472;-76
2021/09/11 08:17:25;;;;;;;63.38;35.75;;;17.80;99.90;;;;;;5073292;28;20040;-76
2021/09/11 08:19:51;;;;;;;53.67;32.35;;;17.90;99.90;;;;;;5072701;28;20047;-73
2021/09/11 08:22:17;;;;;;;54.22;32.92;;;17.90;99.90;;;;;;5073036;28;20052;-74
2021/09/11 08:24:42;;;;;;;54.90;32.95;;;18.00;99.90;;;;;;5073390;28;20083;-74
2021/09/11 08:27:08;;;;;;;55.42;33.22;;;17.90;99.90;;;;;;5072060;28;20076;-74
2021/09/11 08:29:35;;;;;;;50.08;32.15;;;18.00;99.90;;;;;;5072862;28;20374;-74
2021/09/11 08:32:01;;;;;;;50.83;31.58;;;18.00;99.90;;;;;;5073003;28;20495;-74
2021/09/11 08:34:27;;;;;;;49.42;30.88;;;18.00;99.90;;;;;;5072925;28;20569;-74
2021/09/11 08:36:53;;;;;;;51.35;32.22;;;18.10;99.90;;;;;;5071780;28;20044;-74
2021/09/11 08:39:18;;;;;;;49.95;31.02;;;18.00;99.90;;;;;;5071781;28;20098;-74
2021/09/11 08:41:44;;;;;;;47.10;30.02;;;18.10;99.90;;;;;;5072963;28;20087;-74
2021/09/11 08:44:10;;;;;;;53.78;31.27;;;18.00;99.90;;;;;;5073002;28;20079;-74
2021/09/11 08:46:37;;;;;;;50.00;31.45;;;18.10;99.90;;;;;;5072073;28;20048;-74
2021/09/11 08:49:03;;;;;;;54.47;32.55;;;18.10;99.90;;;;;;5072806;28;20055;-74
2021/09/11 08:51:29;;;;;;;53.80;31.35;;;18.10;99.90;;;;;;5071649;28;20504;-74
2021/09/11 08:53:55;;;;;;;56.80;32.05;;;18.10;99.90;;;;;;5073357;28;20043;-74
2021/09/11 08:56:20;;;;;;;46.38;30.50;;;18.10;99.90;;;;;;5071889;28;20504;-74
2021/09/11 08:58:46;;;;;;;60.92;32.80;;;18.10;99.90;;;;;;5072442;28;20037;-71
2021/09/11 09:01:12;;;;;;;57.78;34.05;;;18.10;99.90;;;;;;5072878;28;20064;-71
2021/09/11 09:03:42;;;;;;;48.13;32.00;;;18.20;99.90;;;;;;5073033;28;20389;-75
2021/09/11 09:06:14;;;;;;;51.72;32.28;;;18.20;99.90;;;;;;5071285;28;20090;-74
2021/09/11 09:08:40;;;;;;;54.38;31.67;;;18.30;99.90;;;;;;5072772;28;20054;-74
2021/09/11 09:11:17;;;;;;;50.00;31.50;;;18.30;99.90;;;;;;5072735;28;20051;-72
2021/09/11 09:13:57;;;;;;;52.70;30.23;;;18.30;99.90;;;;;;5073009;28;20403;-73
2021/09/11 09:16:25;;;;;;;52.03;31.10;;;18.30;99.90;;;;;;5073141;28;20029;-72
2021/09/11 09:18:51;;;;;;;43.10;28.65;;;18.30;99.90;;;;;;5071225;28;20036;-72
2021/09/11 09:21:24;;;;;;;48.90;29.63;;;18.40;99.90;;;;;;5054733;28;20400;-72
2021/09/11 09:23:54;;;;;;;49.60;29.27;;;18.40;99.90;;;;;;5072826;28;20032;-73
2021/09/11 09:26:20;;;;;;;47.80;29.88;;;18.50;99.90;;;;;;5070858;28;20036;-75
2021/09/11 09:29:06;;;;;;;52.30;31.88;;;18.50;99.90;;;;;;5070285;28;20036;-76
2021/09/11 09:31:32;;;;;;;48.35;30.45;;;18.60;99.90;;;;;;5071436;28;20056;-76
2021/09/11 09:33:57;;;;;;;54.65;31.73;;;18.50;99.90;;;;;;5072650;28;20041;-76
2021/09/11 09:36:29;;;;;;;48.33;31.27;;;18.60;99.90;;;;;;5075215;28;20036;-76
2021/09/11 09:39:02;;;;;;;50.22;31.45;;;18.50;99.90;;;;;;5075174;28;20126;-76
2021/09/11 09:41:50;;;;;;;52.35;30.75;;;18.50;99.90;;;;;;5075426;28;20044;-76
2021/09/11 09:44:18;;;;;;;48.42;30.63;;;18.60;99.90;;;;;;5074650;28;20047;-75
2021/09/11 09:46:45;;;;;;;51.55;30.23;;;18.70;99.90;;;;;;5075357;28;20051;-76
2021/09/11 09:49:15;;;;;;;49.13;30.33;;;18.70;99.90;;;;;;5075628;28;20028;-77
2021/09/11 09:51:41;;;;;;;52.85;30.67;;;18.70;99.90;;;;;;5075565;28;20123;-76
2021/09/11 09:54:07;;;;;;;55.92;31.75;;;18.70;99.90;;;;;;5075809;28;20079;-76
2021/09/11 09:56:33;;;;;;;52.10;30.85;;;18.70;99.90;;;;;;5074420;28;20036;-76
2021/09/11 09:58:59;;;;;;;48.97;30.42;;;18.60;99.90;;;;;;5075332;28;20050;-76
2021/09/11 10:01:27;;;;;;;50.05;30.42;;;18.60;99.90;;;;;;5074440;28;20040;-76
2021/09/11 10:03:55;;;;;;;52.90;30.20;;;18.60;99.90;;;;;;5057707;28;20041;-76
2021/09/11 10:06:29;;;;;;;51.67;30.55;;;18.60;99.90;;;;;;5075610;28;20472;-76
2021/09/11 10:09:05;;;;;;;44.20;29.77;;;18.70;99.90;;;;;;5075558;28;20032;-77
2021/09/11 10:11:38;;;;;;;46.47;28.60;;;18.60;99.90;;;;;;5074728;28;20041;-76
2021/09/11 10:14:14;;;;;;;45.10;29.23;;;18.70;99.90;;;;;;5074494;28;20044;-76
2021/09/11 10:16:44;;;;;;;48.40;28.52;;;18.70;99.90;;;;;;5074136;28;20051;-76
2021/09/11 10:19:17;;;;;;;46.58;28.38;;;18.70;99.90;;;;;;5073992;28;20461;-76
2021/09/11 10:21:43;;;;;;;;;;;18.70;99.90;;;;;;5075710;28;20083;-76
2021/09/11 10:24:13;;;;;;;47.65;30.05;;;18.60;99.90;;;;;;5075060;28;20400;-76
2021/09/11 10:26:49;;;;;;;47.30;28.83;;;18.60;99.90;;;;;;5073991;28;20119;-76
2021/09/11 10:29:33;;;;;;;47.47;29.77;;;18.70;99.90;;;;;;5073588;28;20041;-76
2021/09/11 10:32:28;;;;;;;50.97;30.08;;;18.70;99.90;;;;;;5057912;28;20119;-76
2021/09/11 10:34:57;;;;;;;43.53;28.83;;;18.80;99.90;;;;;;5057732;28;20076;-77
2021/09/11 10:37:27;;;;;;;48.28;28.98;;;18.80;99.90;;;;;;5074278;28;20396;-77
2021/09/11 10:40:16;;;;;;;48.10;28.83;;;18.80;99.90;;;;;;5056917;28;20037;-76
2021/09/11 10:43:06;;;;;;;46.80;29.33;;;18.80;99.90;;;;;;5075058;28;20040;-76
2021/09/11 10:45:54;;;;;;;48.92;28.77;;;18.80;99.90;;;;;;5056857;28;20123;-76
2021/09/11 10:48:43;;;;;;;51.58;29.75;;;18.80;99.90;;;;;;5074753;28;20052;-76
2021/09/11 10:51:35;;;;;;;44.95;28.63;;;18.80;99.90;;;;;;5073435;28;20094;-76
2021/09/11 10:54:09;;;;;;;44.17;28.80;;;18.90;99.90;;;;;;5073428;28;20036;-77
2021/09/11 10:56:36;;;;;;;42.28;26.92;;;18.90;99.90;;;;;;5056700;28;20036;-76
2021/09/11 11:02:08;;;;;;;42.35;27.02;;;19.20;99.90;;;;;;5073402;28;20048;-76
2021/09/11 11:04:40;;;;;;;39.30;26.27;;;19.40;99.90;;;;;;5074593;28;20080;-76
2021/09/11 11:07:11;;;;;;;37.83;25.75;;;19.60;99.90;;;;;;5074694;28;20044;-75
2021/09/11 11:09:46;;;;;;;38.72;23.88;;;19.80;99.90;;;;;;5074046;28;20032;-75
2021/09/11 11:12:23;;;;;;;35.80;24.92;;;19.80;99.90;;;;;;5056070;28;20044;-76
2021/09/11 11:14:53;;;;;;;34.22;23.55;;;19.80;99.90;;;;;;5056385;28;20037;-74
2021/09/11 11:17:19;;;;;;;36.70;24.75;;;19.80;99.90;;;;;;5056726;28;20369;-75
2021/09/11 11:19:47;;;;;;;37.85;25.70;;;19.70;99.90;;;;;;5073772;28;20039;-76
2021/09/11 11:22:16;;;;;;;32.55;24.45;;;19.70;99.90;;;;;;5072607;28;20044;-76
2021/09/11 11:24:47;;;;;;;37.90;25.50;;;19.60;99.90;;;;;;5073199;28;20052;-76
2021/09/11 11:27:19;;;;;;;34.30;24.00;;;19.70;99.90;;;;;;5072848;28;20048;-75
2021/09/11 11:29:47;;;;;;;31.43;23.17;;;19.70;99.90;;;;;;5073958;28;20543;-74
2021/09/11 11:32:15;;;;;;;30.58;23.67;;;19.70;99.90;;;;;;5072485;28;20044;-75
2021/09/11 11:34:41;;;;;;;32.70;22.45;;;19.70;99.90;;;;;;5073714;28;20400;-75
2021/09/11 11:37:09;;;;;;;35.88;24.23;;;19.70;99.90;;;;;;5073034;28;20043;-75
2021/09/11 11:39:40;;;;;;;33.40;22.58;;;19.70;99.90;;;;;;5055821;28;20362;-75
2021/09/11 11:42:12;;;;;;;27.17;21.83;;;19.90;99.90;;;;;;5073966;28;20119;-75
2021/09/11 11:44:47;;;;;;;32.67;21.58;;;20.00;99.90;;;;;;5055724;28;20048;-75
2021/09/11 11:47:26;;;;;;;30.95;21.80;;;20.00;99.90;;;;;;5056284;28;20067;-75
2021/09/11 11:49:52;;;;;;;29.15;22.65;;;19.90;99.90;;;;;;5073460;28;20141;-75
2021/09/11 11:52:19;;;;;;;31.80;21.40;;;19.90;99.90;;;;;;5072140;28;20513;-75
2021/09/11 11:54:47;;;;;;;33.03;21.00;;;19.90;99.90;;;;;;5073546;28;20480;-75
2021/09/11 11:57:15;;;;;;;30.38;20.45;;;19.80;99.90;;;;;;5072859;28;20032;-75
2021/09/11 11:59:42;;;;;;;26.25;20.67;;;19.70;99.90;;;;;;5072153;28;20040;-74
2021/09/11 12:02:26;;;;;;;31.30;19.95;;;19.60;99.90;;;;;;5073190;28;20186;-74
2021/09/11 12:04:53;;;;;;;28.40;21.40;;;19.70;99.90;;;;;;5072043;28;20052;-75
2021/09/11 12:07:31;;;;;;;28.05;20.50;;;19.60;99.90;;;;;;5072541;28;20393;-73
2021/09/11 12:10:00;;;;;;;30.15;21.20;;;19.60;99.90;;;;;;5071943;28;20055;-73
2021/09/11 12:12:48;;;;;;;25.77;19.77;;;19.60;99.90;;;;;;5073196;28;20397;-73
2021/09/11 12:15:17;;;;;;;26.83;19.50;;;19.70;99.90;;;;;;5072502;28;20041;-73
2021/09/11 12:18:00;;;;;;;26.92;18.52;;;19.80;99.90;;;;;;5072201;28;20484;-73
2021/09/11 12:20:30;;;;;;;26.15;18.35;;;19.80;99.90;;;;;;5054975;28;20041;-74
2021/09/11 12:23:03;;;;;;;20.95;16.88;;;19.90;99.90;;;;;;5072037;28;20084;-74
2021/09/11 12:25:48;;;;;;;25.17;17.48;;;20.00;99.90;;;;;;5073450;28;20036;-74
2021/09/11 12:28:33;;;;;;;28.70;18.10;;;20.10;99.90;;;;;;5073213;28;20039;-75
2021/09/11 12:30:59;;;;;;;24.45;18.67;;;20.10;99.90;;;;;;5073457;28;20111;-74
2021/09/11 12:33:26;;;;;;;23.00;18.40;;;20.10;99.90;;;;;;5055010;28;20088;-74